Time;durP1;ratioP1;P1;durP2;ratioP2;P2;SDS_P1;SDS_P2;PMS_P1;PMS_P2;Temp;Humidity;BMP_temperature;BMP_pressure;BME280_temperature;BME280_humidity;BME280_pressure;Samples;Min_cycle;Max_cycle;Signal;HPM_P1;HPM_P2
2024/03/14 00:02:23;;;;;;;6.57;4.50;;;;;;;10.50;74.15;99295.81;4992614;28;20416;-39
2024/03/14 00:04:48;;;;;;;7.00;4.22;;;;;;;10.58;74.04;99294.75;4992278;28;20038;-39
2024/03/14 00:07:14;;;;;;;5.97;3.60;;;;;;;10.58;75.33;99302.72;4992684;28;20044;-39
2024/03/14 00:09:40;;;;;;;6.85;4.18;;;;;;;10.49;76.59;99304.00;4992409;28;20109;-39
2024/03/14 00:12:06;;;;;;;5.90;4.03;;;;;;;10.83;74.74;99285.97;4992343;28;20026;-40
2024/03/14 00:14:31;;;;;;;6.75;4.20;;;;;;;10.81;75.55;99291.50;4992183;28;20455;-40
2024/03/14 00:16:56;;;;;;;5.45;3.95;;;;;;;10.83;74.81;99285.97;4992366;28;20148;-39
2024/03/14 00:19:22;;;;;;;5.63;3.88;;;;;;;10.38;76.15;99289.56;4992082;28;20088;-40
2024/03/14 00:21:48;;;;;;;6.80;4.22;;;;;;;10.67;75.10;99280.16;4992539;28;20154;-40
2024/03/14 00:24:14;;;;;;;5.22;3.78;;;;;;;10.81;73.79;99280.88;4991962;28;20545;-40
2024/03/14 00:26:39;;;;;;;5.68;4.05;;;;;;;10.57;74.09;99272.66;4992250;28;20038;-39
2024/03/14 00:29:05;;;;;;;6.18;3.85;;;;;;;10.29;75.04;99278.31;4991951;28;20423;-40
2024/03/14 00:31:37;;;;;;;6.32;4.00;;;;;;;10.54;73.26;99273.06;4991914;28;20057;-40
2024/03/14 00:34:02;;;;;;;6.53;3.97;;;;;;;10.83;73.03;99275.34;4991953;28;20113;-40
2024/03/14 00:36:28;;;;;;;5.05;3.88;;;;;;;10.85;72.14;99270.59;4991578;28;20113;-41
2024/03/14 00:38:54;;;;;;;5.55;3.58;;;;;;;10.76;72.32;99264.75;4991878;28;20042;-40
2024/03/14 00:41:19;;;;;;;5.82;3.67;;;;;;;10.78;70.73;99260.03;4991751;28;20022;-41
2024/03/14 00:43:47;;;;;;;4.80;3.65;;;;;;;10.83;71.30;99262.03;4991968;28;20566;-41
2024/03/14 00:46:14;;;;;;;5.35;3.83;;;;;;;10.82;70.22;99263.88;4991541;28;20030;-40
2024/03/14 00:48:40;;;;;;;5.47;4.10;;;;;;;10.75;71.10;99252.47;4991593;28;20504;-40
2024/03/14 00:51:06;;;;;;;5.68;4.15;;;;;;;10.89;69.56;99256.66;4991704;28;20034;-39
2024/03/14 00:53:32;;;;;;;5.82;4.22;;;;;;;10.80;70.93;99254.50;4991583;28;20036;-39
2024/03/14 00:55:58;;;;;;;5.80;4.40;;;;;;;10.98;69.46;99257.19;4991335;28;20022;-39
2024/03/14 00:58:24;;;;;;;6.53;4.43;;;;;;;10.82;68.96;99255.91;4991312;28;20109;-39
2024/03/14 01:00:50;;;;;;;7.22;4.60;;;;;;;10.62;69.39;99261.34;4991125;28;20422;-38
2024/03/14 01:03:17;;;;;;;6.97;4.53;;;;;;;10.80;69.84;99252.63;4991460;28;20034;-39
2024/03/14 01:05:42;;;;;;;6.82;4.70;;;;;;;10.68;69.01;99249.03;4991272;28;20478;-40
2024/03/14 01:08:08;;;;;;;6.93;4.53;;;;;;;10.73;69.62;99250.00;4991085;28;20026;-39
2024/03/14 01:10:33;;;;;;;6.90;4.88;;;;;;;10.61;70.38;99253.59;4991263;28;20027;-39
2024/03/14 01:12:59;;;;;;;7.25;4.80;;;;;;;10.65;70.33;99250.28;4989684;28;20411;-38
2024/03/14 01:15:24;;;;;;;6.38;4.55;;;;;;;10.69;69.77;99242.69;4990953;28;20477;-39
2024/03/14 01:17:49;;;;;;;6.28;4.60;;;;;;;10.69;70.63;99234.72;4990821;28;20038;-39
2024/03/14 01:20:16;;;;;;;6.53;4.72;;;;;;;10.56;70.52;99244.41;4990615;28;20026;-38
2024/03/14 01:22:44;;;;;;;7.55;4.90;;;;;;;10.59;71.78;99245.03;4984932;28;20026;-39
2024/03/14 01:25:10;;;;;;;6.07;4.47;;;;;;;10.65;70.38;99246.81;4991017;28;20038;-38
2024/03/14 01:27:35;;;;;;;6.05;4.47;;;;;;;10.65;71.34;99250.28;4991078;28;20482;-39
2024/03/14 01:30:01;;;;;;;6.90;4.22;;;;;;;10.67;70.67;99242.09;4990476;28;20022;-40
2024/03/14 01:32:26;;;;;;;5.85;4.25;;;;;;;10.56;70.59;99247.06;4990835;28;20038;-38
2024/03/14 01:34:52;;;;;;;5.50;3.70;;;;;;;10.71;71.45;99249.41;4990419;28;20026;-39
2024/03/14 01:37:18;;;;;;;5.32;3.90;;;;;;;10.74;71.14;99243.66;4990457;28;20026;-39
2024/03/14 01:39:43;;;;;;;4.97;3.80;;;;;;;10.93;69.76;99239.22;4990300;28;20472;-40
2024/03/14 01:42:12;;;;;;;5.10;3.88;;;;;;;10.59;71.32;99237.03;4990343;28;20111;-38
2024/03/14 01:44:49;;;;;;;5.55;3.67;;;;;;;10.59;70.83;99248.50;4990686;28;20502;-40
2024/03/14 01:47:15;;;;;;;5.05;3.22;;;;;;;10.32;72.86;99248.66;4990612;28;20117;-39
2024/03/14 01:49:41;;;;;;;5.00;3.65;;;;;;;10.46;72.21;99240.59;4990484;28;20181;-39
2024/03/14 01:52:07;;;;;;;5.43;3.60;;;;;;;10.51;71.57;99235.47;4990252;28;20026;-39
2024/03/14 01:54:34;;;;;;;5.40;3.60;;;;;;;10.91;70.32;99235.97;4990336;28;20460;-39
2024/03/14 01:57:00;;;;;;;4.80;3.47;;;;;;;10.57;72.29;99231.94;4990303;28;20518;-39
2024/03/14 01:59:27;;;;;;;4.07;3.05;;;;;;;10.74;71.67;99234.88;4990197;28;20022;-38
2024/03/14 02:01:54;;;;;;;4.28;2.97;;;;;;;10.50;72.11;99231.97;4990330;28;20507;-39
2024/03/14 02:04:27;;;;;;;3.95;2.75;;;;;;;10.59;72.01;99239.72;4990573;28;20069;-39
2024/03/14 02:07:18;;;;;;;4.47;3.40;;;;;;;10.59;71.95;99234.38;4990586;28;20046;-39
2024/03/14 02:09:47;;;;;;;4.55;3.05;;;;;;;10.72;71.75;99235.09;4993985;28;20048;-39
2024/03/14 02:12:12;;;;;;;4.07;3.28;;;;;;;10.59;71.99;99237.03;4994227;28;20419;-40
2024/03/14 02:14:37;;;;;;;4.45;3.30;;;;;;;10.32;72.82;99230.03;4994465;28;20124;-39
2024/03/14 02:17:06;;;;;;;5.00;3.20;;;;;;;10.73;71.30;99231.38;4991839;28;20603;-39
2024/03/14 02:19:32;;;;;;;4.35;3.10;;;;;;;10.56;72.55;99214.31;4989607;28;20027;-39
2024/03/14 02:22:01;;;;;;;3.60;2.95;;;;;;;10.51;73.12;99225.63;4980416;28;20108;-39
2024/03/14 02:24:27;;;;;;;4.75;2.85;;;;;;;10.44;73.27;99224.84;4976810;28;20624;-38
2024/03/14 02:26:54;;;;;;;3.97;2.70;;;;;;;10.68;72.33;99225.09;4974471;28;20205;-39
2024/03/14 02:29:20;;;;;;;3.80;2.60;;;;;;;10.63;72.87;99224.94;4981890;28;20089;-40
2024/03/14 02:31:46;;;;;;;3.60;2.70;;;;;;;10.52;73.52;99221.91;4994136;28;20108;-40
2024/03/14 02:34:11;;;;;;;3.40;2.65;;;;;;;10.49;73.55;99219.72;4993953;28;20456;-39
2024/03/14 02:36:36;;;;;;;2.72;2.20;;;;;;;10.49;73.37;99230.34;4993892;28;20026;-40
2024/03/14 02:39:02;;;;;;;2.53;2.08;;;;;;;10.53;73.23;99226.22;4993544;28;20029;-40
2024/03/14 02:41:30;;;;;;;2.45;1.98;;;;;;;10.43;73.39;99225.88;4993583;28;20032;-40
2024/03/14 02:43:57;;;;;;;2.63;2.10;;;;;;;10.62;72.60;99229.41;4993650;28;20034;-40
2024/03/14 02:46:25;;;;;;;3.15;2.00;;;;;;;10.63;72.80;99232.91;4993543;28;20019;-39
2024/03/14 02:48:51;;;;;;;2.38;1.95;;;;;;;10.60;72.74;99230.69;4993600;28;20130;-38
2024/03/14 02:51:16;;;;;;;2.60;2.10;;;;;;;10.28;73.57;99227.97;4993793;28;20031;-39
2024/03/14 02:53:41;;;;;;;2.53;2.00;;;;;;;10.29;74.06;99224.31;4994215;28;20041;-41
2024/03/14 02:56:08;;;;;;;2.83;2.10;;;;;;;10.49;73.49;99227.69;4994250;28;20054;-38
2024/03/14 02:58:36;;;;;;;3.15;2.22;;;;;;;10.57;73.54;99227.41;4994052;28;20049;-38
2024/03/14 03:01:03;;;;;;;2.42;2.03;;;;;;;10.60;73.42;99233.34;4994023;28;20018;-39
2024/03/14 03:03:29;;;;;;;2.65;1.88;;;;;;;10.76;72.97;99230.97;4993989;28;20045;-37
2024/03/14 03:05:54;;;;;;;2.50;1.90;;;;;;;10.62;73.40;99232.06;4993576;28;20446;-40
2024/03/14 03:08:19;;;;;;;2.83;2.03;;;;;;;10.75;72.53;99236.50;4993311;28;20781;-38
2024/03/14 03:10:45;;;;;;;2.95;1.80;;;;;;;10.57;73.63;99234.59;4993420;28;20018;-39
2024/03/14 03:13:10;;;;;;;2.42;1.75;;;;;;;10.59;74.18;99234.38;4993611;28;20073;-39
2024/03/14 03:15:35;;;;;;;2.70;2.00;;;;;;;10.52;73.00;99226.44;4993683;28;20026;-38
2024/03/14 03:18:01;;;;;;;2.60;1.92;;;;;;;10.47;74.22;99237.72;4993442;28;20022;-39
2024/03/14 03:20:26;;;;;;;4.07;1.90;;;;;;;10.61;72.51;99232.31;4992261;28;20651;-38
2024/03/14 03:23:08;;;;;;;2.50;1.88;;;;;;;10.72;73.07;99228.97;4993725;28;20471;-39
2024/03/14 03:25:34;;;;;;;2.00;1.63;;;;;;;10.67;72.82;99226.94;4993843;28;20080;-38
2024/03/14 03:28:00;;;;;;;2.40;1.90;;;;;;;10.66;73.71;99232.47;4993245;28;20060;-39
2024/03/14 03:30:26;;;;;;;2.70;1.77;;;;;;;10.63;73.31;99239.03;4993721;28;20058;-40
2024/03/14 03:32:51;;;;;;;2.65;1.88;;;;;;;10.66;74.19;99235.13;4993843;28;20055;-39
2024/03/14 03:35:18;;;;;;;2.28;1.90;;;;;;;10.78;73.71;99227.28;4992899;28;20073;-39
2024/03/14 03:37:44;;;;;;;2.10;1.73;;;;;;;10.61;74.41;99234.97;4993179;28;20037;-39
2024/03/14 03:40:14;;;;;;;2.15;1.70;;;;;;;10.74;73.42;99234.88;4993026;28;20506;-39
2024/03/14 03:42:45;;;;;;;1.92;1.67;;;;;;;10.76;72.68;99240.81;4992966;28;20382;-40
2024/03/14 03:45:12;;;;;;;2.95;1.92;;;;;;;10.52;74.05;99245.88;4993169;28;20026;-39
2024/03/14 03:47:39;;;;;;;1.90;1.50;;;;;;;10.82;73.00;99247.91;4993666;28;20061;-40
2024/03/14 03:50:08;;;;;;;3.17;1.90;;;;;;;10.82;73.10;99253.22;4993177;28;20026;-40
2024/03/14 03:52:34;;;;;;;1.87;1.63;;;;;;;10.65;74.08;99244.16;4993074;28;20026;-39
2024/03/14 03:55:05;;;;;;;1.70;1.50;;;;;;;10.52;74.13;99248.53;4993329;28;20037;-37
2024/03/14 03:57:31;;;;;;;1.98;1.60;;;;;;;10.62;74.00;99250.69;4993209;28;20432;-39
2024/03/14 03:59:57;;;;;;;1.88;1.67;;;;;;;10.70;73.94;99249.63;4992900;28;20514;-39
2024/03/14 04:02:23;;;;;;;1.90;1.50;;;;;;;10.40;75.11;99250.25;4993084;28;20069;-40
2024/03/14 04:04:48;;;;;;;1.67;1.50;;;;;;;10.85;73.37;99247.50;4993347;28;20046;-38
2024/03/14 04:07:19;;;;;;;1.60;1.40;;;;;;;10.37;73.83;99235.53;4992830;28;20494;-40
2024/03/14 04:09:51;;;;;;;1.40;1.30;;;;;;;10.52;73.76;99256.50;4992908;28;20026;-37
2024/03/14 04:12:16;;;;;;;3.40;1.60;;;;;;;10.73;72.54;99252.66;4992996;28;20495;-40
2024/03/14 04:14:42;;;;;;;2.47;1.60;;;;;;;10.74;72.85;99256.97;4993069;28;20045;-41
2024/03/14 04:17:15;;;;;;;2.25;1.73;;;;;;;10.93;71.73;99257.06;4993280;28;20026;-40
2024/03/14 04:19:40;;;;;;;1.85;1.58;;;;;;;10.88;72.85;99257.69;4992728;28;20027;-38
2024/03/14 04:22:06;;;;;;;7.70;3.70;;;;;;;10.89;72.98;99258.50;4992745;28;20073;-39
2024/03/14 04:24:32;;;;;;;3.90;2.00;;;;;;;10.83;73.64;99257.50;4992588;28;20034;-40
2024/03/14 04:26:58;;;;;;;4.00;2.17;;;;;;;10.55;76.51;99266.72;4992703;28;20388;-38
2024/03/14 04:29:26;;;;;;;2.58;2.08;;;;;;;10.67;75.42;99274.03;4992215;28;20054;-40
2024/03/14 04:31:52;;;;;;;3.20;2.42;;;;;;;10.85;74.93;99271.44;4992478;28;20106;-38
2024/03/14 04:34:17;;;;;;;2.20;1.80;;;;;;;10.82;74.43;99273.72;4992766;28;20166;-41
2024/03/14 04:36:42;;;;;;;5.43;3.03;;;;;;;10.82;74.22;99274.53;4992313;28;20525;-40
2024/03/14 04:39:09;;;;;;;2.30;1.83;;;;;;;10.87;74.14;99282.69;4992329;28;20029;-40
2024/03/14 04:41:35;;;;;;;3.15;2.00;;;;;;;10.75;74.71;99279.88;4992386;28;20022;-39
2024/03/14 04:44:03;;;;;;;2.95;2.20;;;;;;;11.05;73.80;99286.44;4992372;28;20379;-39
2024/03/14 04:46:29;;;;;;;2.65;2.00;;;;;;;11.31;72.49;99270.22;4992160;28;20403;-39
2024/03/14 04:48:56;;;;;;;2.38;1.95;;;;;;;11.25;72.35;99291.56;4992479;28;20038;-39
2024/03/14 04:51:22;;;;;;;3.30;2.15;;;;;;;11.20;72.57;99278.13;4992098;28;20026;-39
2024/03/14 04:53:47;;;;;;;3.30;2.20;;;;;;;11.01;73.96;99286.06;4991716;28;20029;-40
2024/03/14 04:56:13;;;;;;;3.10;2.30;;;;;;;10.85;73.71;99287.41;4991883;28;20030;-38
2024/03/14 04:58:38;;;;;;;3.30;2.50;;;;;;;11.02;72.55;99293.00;4992324;28;20029;-40
2024/03/14 05:01:04;;;;;;;2.88;1.95;;;;;;;11.32;71.85;99297.66;4991793;28;20097;-40
2024/03/14 05:03:29;;;;;;;3.05;2.00;;;;;;;11.20;72.26;99291.44;4990957;28;20117;-42
2024/03/14 05:05:56;;;;;;;3.00;2.20;;;;;;;11.28;71.82;99301.81;4990872;28;20030;-42
2024/03/14 05:08:22;;;;;;;2.75;2.05;;;;;;;11.16;72.36;99296.38;4990892;28;20045;-40
2024/03/14 05:10:47;;;;;;;3.85;2.60;;;;;;;11.08;72.67;99297.47;4990669;28;20026;-40
2024/03/14 05:13:13;;;;;;;4.57;2.20;;;;;;;10.90;73.00;99305.38;4990562;28;20514;-41
2024/03/14 05:15:38;;;;;;;2.65;2.15;;;;;;;10.94;72.63;99307.38;4990369;28;20036;-40
2024/03/14 05:18:05;;;;;;;3.22;2.00;;;;;;;11.34;77.39;99311.59;4991033;28;20057;-43
2024/03/14 05:20:31;;;;;;;3.28;1.98;;;;;;;11.38;72.46;99311.97;4992365;28;20026;-41
2024/03/14 05:22:57;;;;;;;3.20;2.30;;;;;;;11.27;73.22;99301.00;4991237;28;20077;-42
2024/03/14 05:25:23;;;;;;;2.40;2.10;;;;;;;11.36;73.94;99312.19;4992230;28;20034;-42
2024/03/14 05:27:49;;;;;;;3.45;2.30;;;;;;;11.68;72.63;99312.88;4991949;28;20134;-39
2024/03/14 05:30:17;;;;;;;3.05;2.15;;;;;;;11.48;73.06;99318.44;4991782;28;20041;-40
2024/03/14 05:32:44;;;;;;;2.47;2.20;;;;;;;11.46;72.69;99319.66;4991605;28;20105;-41
2024/03/14 05:35:11;;;;;;;3.20;2.47;;;;;;;11.19;73.69;99319.09;4990756;28;20066;-40
2024/03/14 05:37:37;;;;;;;3.22;2.50;;;;;;;11.28;73.37;99323.13;4992185;28;20022;-39
2024/03/14 05:40:02;;;;;;;4.70;2.30;;;;;;;11.38;73.11;99328.75;4991677;28;20048;-41
2024/03/14 05:42:28;;;;;;;2.67;2.17;;;;;;;11.33;73.77;99321.44;4991141;28;20058;-40
2024/03/14 05:44:56;;;;;;;2.40;2.10;;;;;;;11.40;72.49;99331.19;4991687;28;20417;-40
2024/03/14 05:47:21;;;;;;;2.92;2.22;;;;;;;11.34;73.27;99325.72;4991501;28;20081;-42
2024/03/14 05:49:47;;;;;;;2.95;2.45;;;;;;;11.48;74.14;99339.75;4991502;28;20482;-42
2024/03/14 05:52:12;;;;;;;3.55;2.35;;;;;;;11.43;74.32;99338.78;4977469;28;20046;-41
2024/03/14 05:54:38;;;;;;;2.95;2.30;;;;;;;11.24;74.98;99335.25;4971971;28;20472;-42
2024/03/14 05:57:04;;;;;;;6.50;2.63;;;;;;;11.36;75.44;99341.47;4972121;28;20031;-40
2024/03/14 05:59:30;;;;;;;4.40;2.72;;;;;;;11.11;75.62;99338.81;4972576;28;20029;-41
2024/03/14 06:01:56;;;;;;;4.32;2.70;;;;;;;11.09;76.35;99341.69;4972622;28;20109;-41
2024/03/14 06:04:22;;;;;;;4.28;3.33;;;;;;;11.06;76.64;99344.81;4971966;28;20027;-41
2024/03/14 06:06:51;;;;;;;3.63;2.70;;;;;;;11.30;74.14;99350.34;4972074;28;20070;-40
2024/03/14 06:09:17;;;;;;;3.28;2.55;;;;;;;11.13;75.42;99344.75;4971988;28;20027;-39
2024/03/14 06:11:42;;;;;;;3.22;2.35;;;;;;;11.25;73.72;99347.50;4983684;28;20034;-41
2024/03/14 06:14:08;;;;;;;4.03;2.50;;;;;;;11.62;72.69;99356.41;4991470;28;20096;-41
2024/03/14 06:16:33;;;;;;;4.40;2.58;;;;;;;11.55;72.86;99359.13;4991709;28;20022;-40
2024/03/14 06:18:59;;;;;;;3.50;2.60;;;;;;;11.67;72.71;99353.91;4991218;28;20085;-42
2024/03/14 06:21:24;;;;;;;4.35;2.80;;;;;;;11.44;72.96;99356.38;4991200;28;20037;-42
2024/03/14 06:23:50;;;;;;;3.70;2.85;;;;;;;11.43;73.83;99358.22;4991313;28;20063;-44
2024/03/14 06:26:16;;;;;;;4.60;2.70;;;;;;;11.83;72.59;99365.03;4990973;28;20050;-41
2024/03/14 06:28:42;;;;;;;3.90;2.97;;;;;;;12.04;71.90;99358.50;4989001;28;20125;-41
2024/03/14 06:31:07;;;;;;;4.65;3.28;;;;;;;12.18;71.83;99364.47;4983205;28;20031;-40
2024/03/14 06:33:33;;;;;;;5.75;3.92;;;;;;;12.05;71.78;99360.94;4971949;28;20110;-42
2024/03/14 06:35:59;;;;;;;5.88;4.05;;;;;;;11.72;72.81;99366.56;4972067;28;20132;-40
2024/03/14 06:38:27;;;;;;;4.68;2.72;;;;;;;11.77;72.11;99369.41;4985950;28;20022;-42
2024/03/14 06:40:54;;;;;;;3.30;2.40;;;;;;;11.78;72.45;99372.88;4990901;28;20022;-39
2024/03/14 06:43:22;;;;;;;2.97;2.40;;;;;;;11.89;71.79;99374.81;4990442;28;20552;-42
2024/03/14 06:45:48;;;;;;;2.85;2.38;;;;;;;11.85;72.31;99385.09;4991156;28;20026;-40
2024/03/14 06:48:14;;;;;;;2.70;2.13;;;;;;;12.08;71.73;99379.16;4988985;28;20038;-41
2024/03/14 06:50:39;;;;;;;2.83;2.33;;;;;;;12.05;71.89;99373.44;4977772;28;20026;-40
2024/03/14 06:53:05;;;;;;;4.45;2.40;;;;;;;12.22;71.72;99374.50;4990625;28;20023;-41
2024/03/14 06:55:31;;;;;;;2.88;2.28;;;;;;;12.23;71.81;99380.66;4981828;28;20105;-42
2024/03/14 06:57:56;;;;;;;3.15;2.30;;;;;;;12.27;70.99;99384.50;4995036;28;20026;-41
2024/03/14 07:00:25;;;;;;;6.75;2.63;;;;;;;12.30;71.34;99379.53;4994268;28;20033;-40
2024/03/14 11:38:33;;;;;;;6.93;2.60;;;;;;;14.15;55.20;99354.66;5140600;27;20912;-30
2024/03/14 11:41:06;;;;;;;2.25;2.00;;;;;;;14.51;53.57;99360.72;5107299;28;20480;-28
2024/03/14 11:43:35;;;;;;;2.70;2.20;;;;;;;14.55;53.64;99361.06;5107813;28;20043;-28
2024/03/14 11:46:04;;;;;;;2.15;1.95;;;;;;;14.36;53.95;99352.41;5107298;28;20472;-27
2024/03/14 11:48:30;;;;;;;2.22;2.00;;;;;;;14.02;55.54;99369.09;5107644;28;20169;-28
2024/03/14 11:50:58;;;;;;;7.15;2.28;;;;;;;14.73;53.15;99360.88;5107303;28;20028;-28
2024/03/14 11:53:24;;;;;;;2.33;1.95;;;;;;;14.24;54.22;99360.44;5107370;28;20433;-29
2024/03/14 11:55:50;;;;;;;2.60;1.92;;;;;;;13.68;55.56;99363.53;5099790;28;20027;-27
2024/03/14 11:58:16;;;;;;;2.95;1.90;;;;;;;13.73;56.04;99372.72;5093905;28;20028;-28
2024/03/14 12:00:54;;;;;;;2.92;1.80;;;;;;;14.37;54.30;99373.56;5107737;28;20530;-29
2024/03/14 12:03:24;;;;;;;4.85;1.98;;;;;;;14.03;54.56;99377.94;5101908;28;20024;-28
2024/03/14 12:05:57;;;;;;;2.25;1.60;;;;;;;13.76;55.39;99369.59;5100646;28;20089;-28
2024/03/14 12:08:24;;;;;;;1.80;1.60;;;;;;;13.90;55.26;99365.66;5107359;28;20024;-28
2024/03/14 12:10:54;;;;;;;2.38;1.20;;;;;;;14.36;53.17;99371.94;5107327;28;20023;-26
2024/03/14 12:13:23;;;;;;;2.42;1.15;;;;;;;14.38;51.77;99369.84;5107275;28;20157;-28
2024/03/14 12:16:02;;;;;;;1.77;1.20;;;;;;;14.05;52.17;99382.03;5107134;28;20036;-28
2024/03/14 12:18:28;;;;;;;3.00;1.75;;;;;;;14.10;52.43;99375.16;5107175;28;20055;-29
2024/03/14 12:20:53;;;;;;;2.97;1.60;;;;;;;14.80;50.78;99385.66;5107196;28;20099;-29
2024/03/14 12:23:22;;;;;;;2.00;1.60;;;;;;;14.25;51.83;99391.53;5107033;28;20463;-26
2024/03/14 12:25:50;;;;;;;1.40;1.30;;;;;;;13.98;52.29;99381.31;5107397;28;20020;-28
2024/03/14 12:28:16;;;;;;;1.77;1.40;;;;;;;14.08;52.73;99386.88;5107379;28;20032;-26
2024/03/14 12:30:43;;;;;;;2.55;1.40;;;;;;;14.43;51.47;99375.31;5107167;28;20111;-29
2024/03/14 12:33:12;;;;;;;3.08;1.42;;;;;;;14.08;53.62;99394.91;5104063;28;20084;-29
2024/03/14 12:35:40;;;;;;;;;;;;;;;14.34;53.52;99381.28;5100282;28;20154;-28
2024/03/14 12:38:06;;;;;;;1.73;1.30;;;;;;;14.45;53.27;99394.63;5080607;28;19920;-27
2024/03/14 12:40:32;;;;;;;1.75;1.40;;;;;;;14.18;54.11;99386.28;5073040;28;20025;-28
2024/03/14 12:42:58;;;;;;;4.55;1.70;;;;;;;14.26;54.75;99402.00;5073256;28;20032;-29
2024/03/14 12:45:24;;;;;;;4.25;1.50;;;;;;;14.43;53.82;99396.72;5075815;28;20475;-28
2024/03/14 12:47:52;;;;;;;1.75;1.50;;;;;;;14.40;55.07;99396.38;5091986;28;20020;-28
2024/03/14 12:50:28;;;;;;;4.35;1.77;;;;;;;14.33;57.76;99403.72;5092233;28;20020;-28
2024/03/14 12:53:07;;;;;;;3.25;1.73;;;;;;;14.53;56.26;99408.69;5090366;28;20058;-27
2024/03/14 12:55:33;;;;;;;2.17;1.70;;;;;;;14.72;56.95;99406.69;5092676;28;20032;-27
2024/03/14 12:58:00;;;;;;;2.75;1.60;;;;;;;14.70;56.26;99411.44;5092374;28;20024;-27
2024/03/14 13:00:31;;;;;;;5.03;1.80;;;;;;;15.04;55.77;99404.31;5092607;28;20039;-26
2024/03/14 13:02:57;;;;;;;2.63;1.70;;;;;;;14.62;56.15;99409.94;5079566;28;20112;-31
2024/03/14 13:05:26;;;;;;;1.85;1.70;;;;;;;14.52;56.25;99389.13;5079298;28;20067;-28
2024/03/14 13:08:04;;;;;;;3.45;1.80;;;;;;;14.77;55.55;99396.84;5092363;28;20020;-28
2024/03/14 13:10:35;;;;;;;2.42;1.60;;;;;;;15.14;54.52;99391.09;5092059;28;20028;-27
2024/03/14 13:13:03;;;;;;;4.82;1.92;;;;;;;14.88;56.26;99402.41;5092062;28;20028;-28
2024/03/14 13:15:31;;;;;;;3.83;2.45;;;;;;;14.31;59.83;99398.59;5086588;28;20035;-27
2024/03/14 13:17:56;;;;;;;3.38;2.47;;;;;;;14.12;60.96;99399.81;5090814;28;20038;-29
2024/03/14 13:20:29;;;;;;;4.75;2.42;;;;;;;14.29;60.80;99392.66;5092095;28;20024;-28
2024/03/14 13:22:55;;;;;;;6.57;2.60;;;;;;;14.57;60.57;99391.13;5091976;28;20054;-27
2024/03/14 13:25:24;;;;;;;3.38;2.47;;;;;;;14.96;58.16;99383.25;5092508;28;20471;-30
2024/03/14 13:27:50;;;;;;;3.45;2.00;;;;;;;14.51;57.87;99390.19;5092334;28;20324;-27
2024/03/14 13:30:19;;;;;;;4.50;2.10;;;;;;;14.14;59.41;99400.38;5092233;28;20028;-28
2024/03/14 13:32:51;;;;;;;4.10;2.22;;;;;;;14.53;58.69;99390.75;5092221;28;20035;-28
2024/03/14 13:35:21;;;;;;;2.97;2.03;;;;;;;14.52;58.61;99405.19;5091883;28;20032;-29
2024/03/14 13:37:47;;;;;;;5.43;2.20;;;;;;;14.95;56.90;99395.84;5092043;28;20506;-28
2024/03/14 13:40:12;;;;;;;4.60;2.00;;;;;;;14.69;56.78;99396.44;5091897;28;20055;-27
2024/03/14 13:42:41;;;;;;;6.05;3.83;;;;;;;14.60;55.67;99404.03;5091591;28;20035;-28
2024/03/14 13:45:07;;;;;;;2.80;1.50;;;;;;;14.26;55.60;99402.00;5091647;28;20111;-28
2024/03/14 13:47:32;;;;;;;1.00;0.90;;;;;;;14.12;54.71;99399.81;5092713;28;20107;-28
2024/03/14 13:49:59;;;;;;;1.48;1.00;;;;;;;14.07;55.80;99413.91;5091703;28;20107;-28
2024/03/14 13:52:25;;;;;;;1.65;1.17;;;;;;;14.53;54.84;99411.38;5092027;28;20084;-29
2024/03/14 13:54:54;;;;;;;4.22;1.23;;;;;;;14.60;54.64;99414.72;5091844;28;20035;-30
2024/03/14 13:57:19;;;;;;;4.90;1.77;;;;;;;14.27;55.76;99403.59;5078173;28;20092;-28
2024/03/14 13:59:50;;;;;;;2.67;1.33;;;;;;;14.10;55.64;99416.09;5090289;28;20102;-27
2024/03/14 14:02:19;;;;;;;2.10;1.50;;;;;;;14.04;56.43;99415.16;5089784;28;20028;-27
2024/03/14 14:04:45;;;;;;;2.70;1.63;;;;;;;14.21;55.87;99415.25;5090499;28;20036;-28
2024/03/14 14:07:13;;;;;;;3.53;1.60;;;;;;;13.88;56.86;99402.50;5085820;28;20077;-27
2024/03/14 14:09:38;;;;;;;2.75;1.70;;;;;;;14.19;57.01;99414.69;5082773;28;20055;-28
2024/03/14 14:12:07;;;;;;;3.42;1.80;;;;;;;14.34;56.78;99414.19;5091073;28;20451;-27
2024/03/14 14:14:32;;;;;;;5.22;2.20;;;;;;;14.35;57.23;99423.03;5090054;28;20088;-27
2024/03/14 14:16:59;;;;;;;3.72;1.50;;;;;;;14.26;56.53;99426.09;5090594;28;20459;-26
2024/03/14 14:19:27;;;;;;;2.88;1.70;;;;;;;14.88;55.13;99423.84;5091348;28;20024;-29
2024/03/14 14:21:53;;;;;;;2.20;1.45;;;;;;;14.68;54.55;99425.09;5094338;28;20020;-28
2024/03/14 14:24:18;;;;;;;2.55;1.50;;;;;;;14.37;55.85;99429.78;5091182;28;20028;-28
2024/03/14 14:26:47;;;;;;;6.57;1.77;;;;;;;13.96;57.18;99433.44;5091528;28;20016;-30
2024/03/14 14:29:13;;;;;;;5.85;1.52;;;;;;;14.19;56.64;99433.41;5091149;28;20019;-28
2024/03/14 14:31:39;;;;;;;3.67;1.50;;;;;;;14.31;55.75;99445.97;5091081;28;20024;-28
2024/03/14 14:34:04;;;;;;;2.10;1.30;;;;;;;14.12;56.41;99438.06;5090781;28;20080;-28
2024/03/14 14:36:29;;;;;;;5.72;2.90;;;;;;;14.05;55.88;99440.03;5090653;28;20075;-31
2024/03/14 14:38:55;;;;;;;2.60;1.60;;;;;;;13.97;56.07;99441.22;5091043;28;20168;-27
2024/03/14 14:41:20;;;;;;;1.83;1.50;;;;;;;13.50;57.75;99446.53;5091157;28;20027;-30
2024/03/14 14:43:46;;;;;;;2.08;1.88;;;;;;;13.62;57.47;99451.91;5091002;28;20475;-28
2024/03/14 14:46:14;;;;;;;2.50;1.25;;;;;;;13.97;56.57;99443.88;5090820;28;20088;-31
2024/03/14 14:48:40;;;;;;;1.55;1.25;;;;;;;13.44;57.65;99447.44;5090411;28;20091;-27
2024/03/14 14:51:05;;;;;;;1.20;1.10;;;;;;;13.38;57.94;99451.03;5090885;28;20161;-27
2024/03/14 14:53:30;;;;;;;3.63;1.20;;;;;;;13.38;57.54;99443.81;5090927;28;20034;-29
2024/03/14 14:55:57;;;;;;;1.58;1.27;;;;;;;13.74;56.22;99452.72;5090889;28;20372;-27
2024/03/14 14:58:23;;;;;;;2.10;1.30;;;;;;;13.63;56.60;99450.84;5091419;28;20521;-27
2024/03/14 15:00:48;;;;;;;4.95;1.42;;;;;;;13.27;57.97;99457.97;5091278;28;20095;-28
2024/03/14 15:03:13;;;;;;;5.15;1.63;;;;;;;13.37;57.67;99454.75;5091491;28;20379;-28
2024/03/14 15:05:39;;;;;;;3.17;1.50;;;;;;;13.23;58.56;99462.09;5091093;28;20043;-28
2024/03/14 15:08:05;;;;;;;2.25;1.30;;;;;;;13.46;57.52;99467.56;5091406;28;20064;-28
2024/03/14 15:10:30;;;;;;;5.03;1.60;;;;;;;13.41;58.07;99458.59;5091659;28;20030;-27
2024/03/14 15:12:56;;;;;;;1.88;1.45;;;;;;;13.09;58.71;99462.28;5091332;28;20020;-27
2024/03/14 15:15:26;;;;;;;2.05;1.70;;;;;;;13.15;58.29;99455.22;5091416;28;20032;-31
2024/03/14 15:17:53;;;;;;;3.63;1.70;;;;;;;13.23;58.46;99468.28;5091673;28;20080;-27
2024/03/14 15:20:21;;;;;;;2.17;1.65;;;;;;;13.20;58.18;99463.38;5077775;28;20420;-29
2024/03/14 15:22:48;;;;;;;3.13;1.73;;;;;;;13.13;58.50;99468.00;5090738;28;20041;-29
2024/03/14 15:25:16;;;;;;;3.95;1.67;;;;;;;12.80;59.38;99479.13;5090901;28;20475;-31
2024/03/14 15:27:44;;;;;;;3.83;1.90;;;;;;;12.88;58.86;99478.81;5083942;28;20020;-29
2024/03/14 15:30:11;;;;;;;4.78;1.83;;;;;;;12.55;59.81;99481.91;5088101;28;20022;-28
2024/03/14 15:32:39;;;;;;;5.30;1.85;;;;;;;12.61;59.85;99489.81;5097515;28;20591;-30
2024/03/14 15:35:05;;;;;;;3.90;2.00;;;;;;;12.59;59.91;99489.22;5091843;28;20031;-31
2024/03/14 15:37:32;;;;;;;3.13;2.00;;;;;;;12.62;60.20;99495.97;5089971;28;20139;-27
2024/03/14 15:39:57;;;;;;;3.80;2.13;;;;;;;12.43;60.37;99484.47;5091096;28;20020;-28
2024/03/14 15:42:23;;;;;;;4.72;2.50;;;;;;;12.36;60.84;99489.09;5090943;28;20027;-27
2024/03/14 15:44:49;;;;;;;4.28;2.33;;;;;;;12.41;60.09;99499.88;5091019;28;20020;-28
2024/03/14 15:47:14;;;;;;;3.40;2.10;;;;;;;12.08;61.97;99501.03;5091419;28;20027;-29
2024/03/14 15:49:40;;;;;;;3.83;2.50;;;;;;;12.35;61.15;99517.59;5090502;28;20407;-28
2024/03/14 15:52:06;;;;;;;5.25;2.50;;;;;;;12.24;61.40;99507.66;5089968;28;20027;-29
2024/03/14 15:54:32;;;;;;;4.03;2.58;;;;;;;12.16;61.72;99511.41;5090562;28;20026;-29
2024/03/14 15:56:57;;;;;;;3.38;2.63;;;;;;;12.20;61.92;99520.59;5090046;28;20098;-29
2024/03/14 15:59:23;;;;;;;3.17;2.70;;;;;;;12.09;61.95;99522.16;5090049;28;20107;-28
2024/03/14 16:01:50;;;;;;;4.63;2.90;;;;;;;11.87;61.47;99511.00;5090146;28;20079;-27
2024/03/14 16:04:16;;;;;;;2.65;2.15;;;;;;;11.72;62.54;99523.84;5090668;28;20479;-27
2024/03/14 16:06:45;;;;;;;4.93;2.55;;;;;;;11.81;62.89;99519.88;5090917;28;20070;-28
2024/03/14 16:09:11;;;;;;;3.20;2.40;;;;;;;12.03;61.79;99525.69;5090659;28;20506;-30